createdAt,value
2017-07-30T00:03:41.632Z,99.99
2017-07-30T00:08:37.813Z,99.99
2017-07-30T00:13:34.808Z,99.99
2017-07-30T00:18:30.429Z,99.99
2017-07-30T00:23:28.442Z,99.99
2017-07-30T00:28:24.264Z,99.99
2017-07-30T00:33:21.378Z,99.99
2017-07-30T00:38:18.322Z,99.99
2017-07-30T00:43:15.358Z,99.99
2017-07-30T00:48:11.135Z,99.99
2017-07-30T00:53:06.983Z,99.99
2017-07-30T00:58:02.840Z,99.99
2017-07-30T01:02:59.719Z,99.99
2017-07-30T01:07:56.801Z,99.99
2017-07-30T01:12:53.149Z,99.99
2017-07-30T01:17:50.416Z,99.99
2017-07-30T01:22:47.629Z,99.99
2017-07-30T01:27:44.030Z,99.99
2017-07-30T01:32:39.952Z,99.99
2017-07-30T01:37:36.272Z,99.99
2017-07-30T01:42:33.438Z,99.99
2017-07-30T01:47:29.293Z,99.99
2017-07-30T01:52:26.649Z,99.99
2017-07-30T01:57:23.959Z,99.99
2017-07-30T02:02:20.058Z,99.99
2017-07-30T02:07:16.924Z,99.99
2017-07-30T02:12:14.530Z,99.99
2017-07-30T02:17:12.375Z,99.99
2017-07-30T02:22:08.421Z,99.99
2017-07-30T02:27:04.551Z,99.99
2017-07-30T02:32:05.732Z,99.99
2017-07-30T02:37:02.667Z,99.99
2017-07-30T02:41:59.290Z,99.99
2017-07-30T02:46:56.188Z,99.99
2017-07-30T02:51:52.772Z,99.99
2017-07-30T02:56:49.605Z,99.99
2017-07-30T03:01:46.389Z,99.99
2017-07-30T03:06:42.532Z,99.99
2017-07-30T03:11:39.694Z,99.99
2017-07-30T03:16:35.430Z,99.99
2017-07-30T03:21:33.300Z,99.99
2017-07-30T03:26:28.938Z,99.99
2017-07-30T03:31:25.193Z,99.99
2017-07-30T03:36:23.136Z,99.99
2017-07-30T03:41:19.108Z,99.99
2017-07-30T03:46:15.227Z,99.99
2017-07-30T03:51:12.619Z,99.99
2017-07-30T03:56:08.557Z,99.99
2017-07-30T04:01:04.773Z,99.99
2017-07-30T04:06:00.668Z,99.99
2017-07-30T04:10:56.851Z,99.99
2017-07-30T04:15:52.890Z,99.99
2017-07-30T04:20:50.194Z,99.99
2017-07-30T04:25:46.840Z,99.99
2017-07-30T04:30:42.538Z,99.99
2017-07-30T04:35:38.989Z,99.99
2017-07-30T04:40:35.074Z,99.99
2017-07-30T04:45:33.148Z,99.99
2017-07-30T04:50:30.007Z,99.99
2017-07-30T04:55:27.081Z,99.99
2017-07-30T05:00:22.905Z,99.99
2017-07-30T05:05:20.551Z,99.99
2017-07-30T05:10:16.215Z,99.99
2017-07-30T05:15:12.493Z,99.99
2017-07-30T05:20:10.946Z,99.99
2017-07-30T05:25:07.014Z,99.99
2017-07-30T05:30:04.471Z,99.99
2017-07-30T05:35:00.457Z,99.99
2017-07-30T05:39:56.395Z,99.99
2017-07-30T05:44:52.488Z,99.99
2017-07-30T05:49:50.099Z,99.99
2017-07-30T05:54:46.105Z,99.99
2017-07-30T05:59:43.986Z,99.99
2017-07-30T06:04:40.529Z,99.99
2017-07-30T06:09:36.615Z,99.99
2017-07-30T06:14:34.358Z,99.99
2017-07-30T06:19:31.545Z,99.99
2017-07-30T06:24:27.463Z,99.99
2017-07-30T06:29:23.976Z,99.99
2017-07-30T06:34:20.109Z,99.99
2017-07-30T06:39:17.901Z,99.99
2017-07-30T06:44:14.656Z,99.99
2017-07-30T06:49:11.046Z,99.99
2017-07-30T06:54:07.125Z,99.99
2017-07-30T06:59:03.127Z,99.99
2017-07-30T07:04:00.347Z,99.99
2017-07-30T07:08:56.725Z,99.99
2017-07-30T07:13:52.989Z,99.99
2017-07-30T07:18:49.100Z,99.99
2017-07-30T07:23:45.331Z,99.99
2017-07-30T07:28:42.293Z,99.99
2017-07-30T07:33:40.010Z,99.99
2017-07-30T07:38:36.630Z,99.99
2017-07-30T07:43:32.681Z,99.99
2017-07-30T07:48:28.902Z,99.41
2017-07-30T07:53:25.188Z,98.15
2017-07-30T07:58:21.556Z,99.02
2017-07-30T08:03:17.493Z,96.12
2017-07-30T08:08:13.899Z,93.32
2017-07-30T08:13:11.480Z,89.64
2017-07-30T08:18:07.899Z,88.43
2017-07-30T08:23:04.830Z,89.11
2017-07-30T08:28:00.850Z,90.41
2017-07-30T08:32:57.090Z,91.86
2017-07-30T08:37:53.136Z,92.64
2017-07-30T08:42:49.283Z,91.58
2017-07-30T08:47:46.620Z,91.42
2017-07-30T08:52:43.156Z,92.06
2017-07-30T08:57:40.728Z,90.50
2017-07-30T09:02:37.716Z,90.99
2017-07-30T09:07:34.576Z,90.94
2017-07-30T09:12:31.538Z,92.74
2017-07-30T09:17:26.927Z,94.57
2017-07-30T09:22:22.557Z,95.44
2017-07-30T09:27:18.905Z,96.07
2017-07-30T09:32:16.894Z,93.70
2017-07-30T09:37:12.757Z,91.52
2017-07-30T09:42:10.654Z,89.53
2017-07-30T09:47:08.613Z,86.96
2017-07-30T09:52:06.293Z,82.98
2017-07-30T09:57:06.066Z,80.07
2017-07-30T10:02:01.681Z,81.33
2017-07-30T10:06:57.113Z,83.09
2017-07-30T10:11:52.093Z,83.58
2017-07-30T10:16:48.565Z,82.70
2017-07-30T10:21:43.977Z,84.31
2017-07-30T10:26:40.471Z,83.86
2017-07-30T10:31:37.262Z,82.07
2017-07-30T10:36:35.713Z,81.87
2017-07-30T10:41:33.289Z,81.48
2017-07-30T10:46:28.095Z,82.45
2017-07-30T10:51:24.400Z,82.55
2017-07-30T10:56:21.760Z,81.77
2017-07-30T11:01:18.583Z,81.04
2017-07-30T11:06:16.452Z,78.61
2017-07-30T11:11:12.060Z,79.20
2017-07-30T11:16:08.442Z,76.72
2017-07-30T11:21:06.076Z,75.26
2017-07-30T11:26:01.430Z,71.19
2017-07-30T11:30:57.223Z,73.13
2017-07-30T11:35:53.804Z,72.71
2017-07-30T11:40:50.779Z,70.12
2017-07-30T11:45:49.080Z,68.51
2017-07-30T11:50:47.669Z,63.01
2017-07-30T11:55:45.355Z,61.35
2017-07-30T12:00:43.007Z,62.23
2017-07-30T12:05:41.225Z,56.04
2017-07-30T12:10:37.243Z,54.97
2017-07-30T12:15:31.268Z,56.72
2017-07-30T12:20:26.147Z,56.79
2017-07-30T12:25:20.572Z,56.86
2017-07-30T12:30:16.152Z,56.76
2017-07-30T12:35:12.355Z,56.09
2017-07-30T12:40:10.361Z,55.38
2017-07-30T12:45:05.541Z,55.96
2017-07-30T12:50:01.856Z,55.87
2017-07-30T12:54:58.206Z,54.92
2017-07-30T12:59:53.331Z,55.57
2017-07-30T13:04:49.651Z,55.57
2017-07-30T13:09:45.892Z,54.70
2017-07-30T13:14:43.332Z,54.60
2017-07-30T13:19:38.918Z,55.28
2017-07-30T13:24:35.771Z,54.02
2017-07-30T13:29:33.095Z,53.78
2017-07-30T13:34:30.066Z,54.05
2017-07-30T13:39:27.197Z,53.78
2017-07-30T13:44:23.093Z,54.85
2017-07-30T13:49:19.435Z,56.28
2017-07-30T13:54:14.255Z,57.12
2017-07-30T13:59:09.157Z,58.06
2017-07-30T14:04:04.839Z,59.52
2017-07-30T14:09:01.943Z,64.56
2017-07-30T14:13:57.941Z,66.30
2017-07-30T14:23:54.579Z,67.79
2017-07-30T14:28:50.577Z,68.92
2017-07-30T14:33:46.273Z,70.83
2017-07-30T14:38:41.726Z,70.44
2017-07-30T14:43:38.436Z,70.70
2017-07-30T14:48:34.196Z,71.70
2017-07-30T14:53:30.025Z,72.34
2017-07-30T14:58:26.088Z,72.83
2017-07-30T15:03:22.194Z,72.44
2017-07-30T15:08:18.187Z,74.02
2017-07-30T15:13:13.765Z,72.18
2017-07-30T15:18:09.363Z,72.47
2017-07-30T15:23:05.169Z,69.76
2017-07-30T15:28:02.055Z,67.24
2017-07-30T15:32:57.706Z,64.34
2017-07-30T15:37:56.157Z,62.91
2017-07-30T15:42:53.801Z,61.07
2017-07-30T15:47:50.292Z,57.94
2017-07-30T15:52:46.917Z,57.48
2017-07-30T15:57:43.643Z,60.20
2017-07-30T16:02:40.044Z,62.79
2017-07-30T16:07:35.844Z,63.37
2017-07-30T16:12:32.988Z,66.17
2017-07-30T16:17:28.673Z,68.89
2017-07-30T16:22:25.538Z,70.21
2017-07-30T16:27:21.128Z,72.40
2017-07-30T16:32:18.226Z,72.79
2017-07-30T16:37:13.576Z,73.82
2017-07-30T16:42:10.345Z,75.17
2017-07-30T16:47:08.592Z,74.11
2017-07-30T16:52:04.493Z,74.01
2017-07-30T16:57:01.688Z,74.69
2017-07-30T17:01:57.389Z,76.43
2017-07-30T17:06:53.389Z,78.08
2017-07-30T17:11:50.857Z,76.53
2017-07-30T17:16:46.656Z,77.01
2017-07-30T17:21:42.690Z,77.40
2017-07-30T17:26:39.416Z,75.81
2017-07-30T17:31:34.885Z,75.13
2017-07-30T17:36:30.582Z,74.23
2017-07-30T17:41:27.465Z,74.23
2017-07-30T17:46:22.694Z,75.35
2017-07-30T17:51:19.472Z,77.48
2017-07-30T17:56:15.198Z,79.60
2017-07-30T18:01:12.136Z,79.22
2017-07-30T18:06:08.848Z,79.41
2017-07-30T18:11:05.477Z,79.95
2017-07-30T18:16:01.833Z,81.59
2017-07-30T18:20:57.412Z,83.52
2017-07-30T18:25:53.166Z,80.82
2017-07-30T18:30:49.358Z,80.87
2017-07-30T18:35:45.572Z,83.19
2017-07-30T18:40:41.799Z,84.44
2017-07-30T18:45:37.682Z,84.83
2017-07-30T18:50:33.627Z,85.56
2017-07-30T18:55:29.490Z,85.46
2017-07-30T19:00:25.514Z,86.72
2017-07-30T19:05:23.444Z,87.59
2017-07-30T19:10:20.171Z,87.45
2017-07-30T19:15:16.785Z,87.54
2017-07-30T19:20:13.577Z,86.48
2017-07-30T19:25:08.912Z,85.91
2017-07-30T19:30:05.084Z,88.31
2017-07-30T19:35:00.843Z,88.70
2017-07-30T19:39:56.497Z,89.04
2017-07-30T19:44:52.345Z,89.14
2017-07-30T19:49:50.484Z,90.20
2017-07-30T19:54:45.742Z,89.43
2017-07-30T19:59:41.743Z,90.97
2017-07-30T20:04:37.977Z,90.20
2017-07-30T20:09:33.885Z,90.20
2017-07-30T20:14:30.348Z,90.83
2017-07-30T20:19:26.238Z,91.21
2017-07-30T20:24:22.060Z,92.47
2017-07-30T20:29:19.150Z,92.52
2017-07-30T20:34:15.663Z,92.94
2017-07-30T20:39:11.272Z,93.81
2017-07-30T20:44:09.118Z,93.96
2017-07-30T20:49:04.702Z,94.97
2017-07-30T20:54:02.142Z,95.02
2017-07-30T20:58:58.247Z,95.60
2017-07-30T21:03:55.297Z,95.89
2017-07-30T21:08:52.132Z,96.27
2017-07-30T21:13:47.610Z,99.84
2017-07-30T21:18:44.412Z,98.97
2017-07-30T21:23:40.130Z,99.99
2017-07-30T21:28:36.857Z,98.87
2017-07-30T21:33:32.511Z,99.78
2017-07-30T21:38:29.398Z,99.99
2017-07-30T21:43:25.364Z,99.99
2017-07-30T21:48:22.395Z,99.99
2017-07-30T21:53:19.354Z,99.93
2017-07-30T21:58:14.853Z,99.99
2017-07-30T22:03:10.868Z,99.99
2017-07-30T22:08:07.849Z,99.99
2017-07-30T22:13:04.561Z,99.99
2017-07-30T22:18:00.650Z,99.99
2017-07-30T22:22:58.634Z,99.99
2017-07-30T22:27:53.965Z,99.99
2017-07-30T22:32:51.489Z,99.99
2017-07-30T22:37:47.103Z,99.99
2017-07-30T22:42:44.762Z,99.99
2017-07-30T22:47:41.946Z,99.99
2017-07-30T22:52:38.244Z,99.99
2017-07-30T22:57:34.082Z,99.99
2017-07-30T23:02:30.779Z,99.99
2017-07-30T23:07:26.521Z,99.99
2017-07-30T23:12:23.408Z,99.99
2017-07-30T23:17:18.959Z,99.99
2017-07-30T23:22:15.697Z,99.99
2017-07-30T23:27:12.198Z,99.99
2017-07-30T23:32:08.699Z,99.99
2017-07-30T23:37:05.187Z,99.99
2017-07-30T23:42:00.885Z,99.99
2017-07-30T23:46:57.361Z,99.99
2017-07-30T23:51:53.218Z,99.99
2017-07-30T23:56:50.204Z,99.99
